Terminal Aerodrome Forecast
Issued by NWS

Home | Current Version | Previous Version | Text Only | Print | Product List | Glossary On
Versions: 1 2 3 4 5 6 7 8 9 10 11 12 13 14 15 16 17 18 19 20 21 22 23 24 25 26 27 28 29 30 31 32
000
FTUS43 KLOT 202300
TAFORD
TAF
KORD 202336Z 2100/2206 19004KT P6SM OVC045
     FM210800 19004KT P6SM OVC025
     FM211200 18007KT P6SM OVC015
     FM211600 18012KT P6SM OVC015=

USA.gov is the U.S. government's official web portal to all federal, state and local government web resources and services.